Time;durP1;ratioP1;P1;durP2;ratioP2;P2;SDS_P1;SDS_P2;PMS_P1;PMS_P2;Temp;Humidity;BMP_temperature;BMP_pressure;BME280_temperature;BME280_humidity;BME280_pressure;Samples;Min_cycle;Max_cycle;Signal;HPM_P1;HPM_P2
2021/01/27 00:01:48;;;;;;;7.53;5.80;;;1.10;99.90;;;;;;4836886;29;20395;-90
2021/01/27 00:04:14;;;;;;;6.10;5.50;;;1.10;99.90;;;;;;4838765;29;20432;-87
2021/01/27 00:06:39;;;;;;;6.15;5.18;;;1.00;99.90;;;;;;4840647;29;20482;-85
2021/01/27 00:09:05;;;;;;;6.18;5.57;;;1.00;99.90;;;;;;4840773;29;20398;-88
2021/01/27 00:11:31;;;;;;;6.72;5.78;;;1.00;99.90;;;;;;4855728;29;20406;-84
2021/01/27 00:13:57;;;;;;;6.57;5.43;;;1.00;99.90;;;;;;4838094;29;20411;-84
2021/01/27 00:16:22;;;;;;;7.13;5.60;;;1.00;99.90;;;;;;4831270;29;20418;-83
2021/01/27 00:18:48;;;;;;;5.78;5.18;;;1.00;99.90;;;;;;4836525;29;20946;-85
2021/01/27 00:21:14;;;;;;;7.70;6.37;;;0.90;99.90;;;;;;4850170;29;20758;-86
2021/01/27 00:23:39;;;;;;;7.47;6.10;;;0.90;99.90;;;;;;4835796;29;20430;-84
2021/01/27 00:26:05;;;;;;;8.43;6.47;;;0.80;99.90;;;;;;4849759;29;20418;-85
2021/01/27 00:28:31;;;;;;;8.00;5.70;;;0.80;99.90;;;;;;4865702;29;20454;-82
2021/01/27 00:30:56;;;;;;;6.70;6.00;;;0.80;99.90;;;;;;4863552;29;20434;-88
2021/01/27 00:33:22;;;;;;;8.95;6.78;;;0.80;99.90;;;;;;4845350;29;20526;-80
2021/01/27 00:35:49;;;;;;;9.38;6.47;;;0.80;99.90;;;;;;4833972;29;20506;-80
2021/01/27 00:38:20;;;;;;;8.13;6.70;;;0.80;99.90;;;;;;4828260;29;20909;-82
2021/01/27 00:40:46;;;;;;;7.28;5.65;;;0.80;99.90;;;;;;4838124;29;20400;-79
2021/01/27 00:43:12;;;;;;;7.22;6.40;;;0.80;99.90;;;;;;4826357;29;20531;-79
2021/01/27 00:45:37;;;;;;;9.02;5.97;;;0.80;99.90;;;;;;4838557;29;20420;-81
2021/01/27 00:48:04;;;;;;;10.40;6.72;;;0.80;99.90;;;;;;4842385;29;21187;-82
2021/01/27 00:50:29;;;;;;;7.35;6.55;;;0.80;99.90;;;;;;4833856;29;21127;-79
2021/01/27 00:52:55;;;;;;;7.53;6.28;;;0.80;99.90;;;;;;4830402;29;20472;-79
2021/01/27 00:55:28;;;;;;;8.88;6.60;;;0.80;99.90;;;;;;4825525;29;20447;-79
2021/01/27 00:57:55;;;;;;;7.95;6.72;;;0.80;99.90;;;;;;4805184;29;20435;-79
2021/01/27 01:00:32;;;;;;;8.03;6.77;;;0.80;99.90;;;;;;4780454;29;20607;-79
2021/01/27 01:02:59;;;;;;;8.75;6.68;;;0.80;99.90;;;;;;4776889;29;20431;-79
2021/01/27 01:05:27;;;;;;;8.85;6.78;;;0.80;99.90;;;;;;4827976;29;20432;-80
2021/01/27 01:07:53;;;;;;;7.78;6.72;;;0.80;99.90;;;;;;4829298;29;20448;-79
2021/01/27 01:10:28;;;;;;;7.10;6.38;;;0.80;99.90;;;;;;4844088;29;20448;-85
2021/01/27 01:12:55;;;;;;;9.45;7.22;;;0.80;99.90;;;;;;4842850;29;20412;-81
2021/01/27 01:15:22;;;;;;;8.27;6.43;;;0.80;99.90;;;;;;4814156;29;20442;-82
2021/01/27 01:17:47;;;;;;;8.52;7.13;;;0.80;99.90;;;;;;4856482;29;20982;-82
2021/01/27 01:20:16;;;;;;;7.65;6.57;;;0.80;99.90;;;;;;4835068;29;20414;-84
2021/01/27 01:22:55;;;;;;;7.75;6.78;;;0.80;99.90;;;;;;4824664;29;20424;-82
2021/01/27 01:25:22;;;;;;;8.00;6.80;;;0.80;99.90;;;;;;4848809;29;20502;-82
2021/01/27 01:27:48;;;;;;;8.90;6.93;;;0.80;99.90;;;;;;4853328;29;20412;-84
2021/01/27 01:30:24;;;;;;;8.70;7.03;;;0.80;99.90;;;;;;4864271;29;21209;-80
2021/01/27 01:32:50;;;;;;;8.27;6.97;;;0.80;99.90;;;;;;4847939;29;21169;-81
2021/01/27 01:35:16;;;;;;;8.85;6.95;;;0.90;99.90;;;;;;4827061;29;20468;-86
2021/01/27 01:37:42;;;;;;;7.90;6.75;;;0.90;99.90;;;;;;4853572;29;20451;-81
2021/01/27 01:40:10;;;;;;;9.00;7.80;;;0.90;99.90;;;;;;4845808;29;20501;-84
2021/01/27 01:42:36;;;;;;;9.00;7.75;;;0.90;99.90;;;;;;4843803;29;20428;-85
2021/01/27 01:45:07;;;;;;;9.13;7.35;;;0.80;99.90;;;;;;4846237;29;21029;-85
2021/01/27 01:47:33;;;;;;;8.63;7.72;;;0.90;99.90;;;;;;4835030;29;20488;-81
2021/01/27 01:49:59;;;;;;;9.37;7.83;;;0.80;99.90;;;;;;4830264;29;20444;-84
2021/01/27 01:52:24;;;;;;;9.40;7.80;;;0.80;99.90;;;;;;4862020;29;20414;-83
2021/01/27 01:54:52;;;;;;;8.83;7.93;;;0.90;99.90;;;;;;4864116;29;20410;-86
2021/01/27 01:57:21;;;;;;;10.65;8.43;;;0.80;99.90;;;;;;4845442;29;20420;-82
2021/01/27 02:00:07;;;;;;;9.82;8.82;;;0.90;99.90;;;;;;4853052;29;20762;-83
2021/01/27 02:02:37;;;;;;;10.02;8.85;;;0.80;99.90;;;;;;4864421;29;20441;-82
2021/01/27 02:05:09;;;;;;;10.60;8.63;;;0.80;99.90;;;;;;4848194;29;20420;-83
2021/01/27 02:07:35;;;;;;;11.10;8.55;;;0.80;99.90;;;;;;4830242;29;20420;-85
2021/01/27 02:10:00;;;;;;;9.60;8.45;;;0.80;99.90;;;;;;4835086;29;20426;-81
2021/01/27 02:12:37;;;;;;;10.43;8.90;;;0.90;99.90;;;;;;4826804;29;20545;-84
2021/01/27 02:15:29;;;;;;;10.50;8.17;;;0.90;99.90;;;;;;4828202;29;20423;-84
2021/01/27 02:18:14;;;;;;;10.43;8.63;;;0.90;99.90;;;;;;4839932;29;20491;-84
2021/01/27 02:21:11;;;;;;;10.65;8.07;;;0.90;99.90;;;;;;4827429;29;20475;-89
2021/01/27 02:23:48;;;;;;;9.00;8.10;;;0.90;99.90;;;;;;4841619;29;20412;-82
2021/01/27 02:26:44;;;;;;;10.77;8.32;;;0.90;99.90;;;;;;4810171;29;20431;-85
2021/01/27 02:29:21;;;;;;;9.70;8.47;;;0.90;99.90;;;;;;4835823;29;20408;-89
2021/01/27 02:32:44;;;;;;;9.82;8.57;;;0.90;99.90;;;;;;4850104;29;20443;-81
2021/01/27 02:35:20;;;;;;;11.15;9.15;;;0.90;99.90;;;;;;4846414;29;20410;-87
2021/01/27 02:38:15;;;;;;;9.75;8.45;;;0.90;99.90;;;;;;4845453;29;20442;-90
2021/01/27 02:41:00;;;;;;;10.27;8.70;;;0.90;99.90;;;;;;4845299;29;20414;-90
2021/01/27 02:43:35;;;;;;;9.55;8.00;;;0.90;99.90;;;;;;4852444;29;21202;-84
2021/01/27 02:46:27;;;;;;;11.23;8.80;;;0.90;99.90;;;;;;4843341;29;20472;-83
2021/01/27 02:49:06;;;;;;;11.55;8.95;;;0.90;99.90;;;;;;4840165;29;20410;-82
2021/01/27 02:51:44;;;;;;;8.82;7.90;;;0.90;99.90;;;;;;4848558;29;20412;-85
2021/01/27 02:54:16;;;;;;;10.90;8.65;;;0.90;99.90;;;;;;4843267;29;20447;-83
2021/01/27 02:56:46;;;;;;;11.63;8.95;;;0.90;99.90;;;;;;4839004;29;20402;-81
2021/01/27 02:59:17;;;;;;;9.90;8.75;;;1.00;99.90;;;;;;4844971;29;20414;-83
2021/01/27 03:01:43;;;;;;;10.38;8.93;;;0.90;99.90;;;;;;4860336;29;20789;-85
2021/01/27 03:04:23;;;;;;;10.82;9.65;;;0.80;99.90;;;;;;4842941;29;20437;-82
2021/01/27 03:06:49;;;;;;;11.40;8.65;;;0.90;99.90;;;;;;4816901;29;20412;-86
2021/01/27 03:09:51;;;;;;;11.25;9.55;;;0.90;99.90;;;;;;4815362;29;20404;-86
2021/01/27 03:12:17;;;;;;;9.55;8.45;;;0.90;99.90;;;;;;4828755;29;20443;-83
2021/01/27 03:14:43;;;;;;;9.68;8.15;;;0.90;99.90;;;;;;4807972;29;20419;-92
2021/01/27 03:17:11;;;;;;;10.35;9.15;;;1.00;99.90;;;;;;4811430;29;20412;-92
2021/01/27 03:20:02;;;;;;;11.65;9.25;;;0.90;99.90;;;;;;4810419;29;20414;-85
2021/01/27 03:22:51;;;;;;;10.52;8.63;;;0.90;99.90;;;;;;4825921;29;20447;-88
2021/01/27 03:25:22;;;;;;;10.00;9.00;;;0.90;99.90;;;;;;4823353;29;20416;-81
2021/01/27 03:28:05;;;;;;;11.05;8.98;;;0.90;99.90;;;;;;4829605;29;20766;-83
2021/01/27 03:30:31;;;;;;;11.88;8.93;;;0.90;99.90;;;;;;4828512;29;20547;-86
2021/01/27 03:33:17;;;;;;;10.68;8.30;;;0.90;99.90;;;;;;4833741;29;20447;-86
2021/01/27 03:35:44;;;;;;;9.48;8.18;;;0.90;99.90;;;;;;4834370;29;20817;-84
2021/01/27 03:38:19;;;;;;;10.98;9.32;;;0.90;99.90;;;;;;4848766;29;20406;-89
2021/01/27 03:40:45;;;;;;;12.63;9.70;;;0.90;99.90;;;;;;4864061;29;20683;-88
2021/01/27 03:43:27;;;;;;;13.25;9.52;;;0.90;99.90;;;;;;4832303;29;20418;-87
2021/01/27 03:46:07;;;;;;;10.68;8.93;;;0.90;99.90;;;;;;4846064;29;20410;-84
2021/01/27 03:48:57;;;;;;;11.07;9.20;;;1.00;99.90;;;;;;4842492;29;20439;-80
2021/01/27 03:51:23;;;;;;;11.13;8.73;;;0.90;99.90;;;;;;4825944;29;20418;-83
2021/01/27 03:53:50;;;;;;;11.50;9.23;;;0.80;99.90;;;;;;4862425;29;20975;-82
2021/01/27 03:56:22;;;;;;;11.63;9.07;;;1.00;99.90;;;;;;4860338;29;20415;-83
2021/01/27 03:58:47;;;;;;;11.47;9.30;;;0.90;99.90;;;;;;4827597;29;20412;-83
2021/01/27 04:01:15;;;;;;;12.00;9.30;;;1.00;99.90;;;;;;4859044;29;20823;-92
2021/01/27 04:03:41;;;;;;;10.57;8.75;;;0.90;99.90;;;;;;4861011;29;20510;-88
2021/01/27 04:06:07;;;;;;;11.70;9.30;;;0.80;99.90;;;;;;4862210;29;20416;-84
2021/01/27 04:08:33;;;;;;;12.77;9.53;;;0.80;99.90;;;;;;4830134;29;20404;-87
2021/01/27 04:10:59;;;;;;;11.15;9.23;;;0.80;99.90;;;;;;4863649;29;20919;-85
2021/01/27 04:13:25;;;;;;;10.15;9.10;;;0.80;99.90;;;;;;4845142;29;20505;-86
2021/01/27 04:15:51;;;;;;;12.02;9.65;;;0.80;99.90;;;;;;4845137;29;20925;-91
2021/01/27 04:18:16;;;;;;;11.75;9.60;;;0.80;99.90;;;;;;4859689;29;20417;-87
2021/01/27 04:20:44;;;;;;;11.80;8.57;;;0.70;99.90;;;;;;4832135;29;21864;-85
2021/01/27 04:23:09;;;;;;;10.63;8.63;;;0.70;99.90;;;;;;4833316;29;20503;-89
2021/01/27 04:25:35;;;;;;;10.98;9.15;;;0.70;99.90;;;;;;4835872;29;20407;-90
2021/01/27 04:28:01;;;;;;;10.48;8.35;;;0.70;99.90;;;;;;4853471;29;20436;-81
2021/01/27 04:30:29;;;;;;;11.37;9.10;;;0.60;99.90;;;;;;4838986;29;21873;-88
2021/01/27 04:32:56;;;;;;;11.32;9.75;;;0.70;99.90;;;;;;4844110;29;20416;-90
2021/01/27 04:35:21;;;;;;;9.98;8.90;;;0.70;99.90;;;;;;4829433;29;20419;-91
2021/01/27 04:37:47;;;;;;;12.38;10.10;;;0.50;99.90;;;;;;4848590;29;20460;-84
2021/01/27 04:40:25;;;;;;;13.15;9.40;;;0.50;99.90;;;;;;4830705;29;20402;-88
2021/01/27 04:42:51;;;;;;;11.45;8.98;;;0.50;99.90;;;;;;4831565;29;20424;-86
2021/01/27 04:45:17;;;;;;;11.63;9.40;;;0.50;99.90;;;;;;4831864;29;20415;-86
2021/01/27 04:47:54;;;;;;;13.18;9.48;;;0.50;99.90;;;;;;4858960;29;20411;-87
2021/01/27 04:50:26;;;;;;;9.77;8.63;;;0.50;99.90;;;;;;4865398;29;20414;-84
2021/01/27 04:53:30;;;;;;;10.18;8.20;;;0.50;99.90;;;;;;4846819;29;20410;-80
2021/01/27 04:56:10;;;;;;;10.13;9.13;;;0.40;99.90;;;;;;4830044;29;20426;-79
2021/01/27 04:58:41;;;;;;;10.63;9.32;;;0.40;99.90;;;;;;4869418;29;20417;-79
2021/01/27 05:01:40;;;;;;;10.77;8.85;;;0.50;99.90;;;;;;4846512;29;20469;-85
2021/01/27 05:04:06;;;;;;;9.40;8.32;;;0.40;99.90;;;;;;4861550;29;20481;-83
2021/01/27 05:06:32;;;;;;;10.23;8.73;;;0.50;99.90;;;;;;4860627;29;20485;-82
2021/01/27 05:09:09;;;;;;;12.80;9.15;;;0.40;99.90;;;;;;4844542;29;20470;-80
2021/01/27 05:11:34;;;;;;;12.13;8.95;;;0.40;99.90;;;;;;4844252;29;20554;-81
2021/01/27 05:14:02;;;;;;;12.53;9.20;;;0.30;99.90;;;;;;4843714;29;20492;-86
2021/01/27 05:16:29;;;;;;;13.07;8.90;;;0.30;99.90;;;;;;4834941;29;20413;-81
2021/01/27 05:18:58;;;;;;;12.75;9.40;;;0.30;99.90;;;;;;4853651;29;20455;-86
2021/01/27 05:21:38;;;;;;;12.98;9.30;;;0.30;99.90;;;;;;4828411;29;20419;-81
2021/01/27 05:24:05;;;;;;;11.13;8.85;;;0.30;99.90;;;;;;4862325;29;20443;-84
2021/01/27 05:26:54;;;;;;;11.45;9.10;;;0.30;99.90;;;;;;4838766;29;20413;-81
2021/01/27 05:29:35;;;;;;;11.18;9.10;;;0.30;99.90;;;;;;4857433;29;20431;-84
2021/01/27 05:32:16;;;;;;;11.90;8.97;;;0.30;99.90;;;;;;4828574;29;20419;-87
2021/01/27 05:34:44;;;;;;;11.02;8.82;;;0.20;99.90;;;;;;4849309;29;20467;-90
2021/01/27 05:37:36;;;;;;;11.43;8.80;;;0.30;99.90;;;;;;4865085;29;20406;-85
2021/01/27 05:40:09;;;;;;;11.65;9.63;;;0.30;99.90;;;;;;4861732;29;20406;-86
2021/01/27 05:42:35;;;;;;;10.63;8.90;;;0.20;99.90;;;;;;4828090;29;20805;-84
2021/01/27 05:45:30;;;;;;;10.30;8.27;;;0.20;99.90;;;;;;4857388;29;20979;-85
2021/01/27 05:47:56;;;;;;;10.90;9.55;;;0.20;99.90;;;;;;4845111;29;21264;-79
2021/01/27 05:50:30;;;;;;;11.67;8.90;;;0.20;99.90;;;;;;4842654;29;20517;-82
2021/01/27 05:53:16;;;;;;;12.05;9.73;;;0.20;99.90;;;;;;4843567;29;20857;-79
2021/01/27 05:56:15;;;;;;;11.88;9.13;;;0.20;99.90;;;;;;4844637;29;20417;-85
2021/01/27 05:58:56;;;;;;;11.77;9.60;;;0.10;99.90;;;;;;4872661;29;20480;-82
2021/01/27 06:01:21;;;;;;;11.40;9.05;;;0.10;99.90;;;;;;4843352;29;20461;-78
2021/01/27 06:03:56;;;;;;;11.30;9.40;;;0.10;99.90;;;;;;4863056;29;20948;-83
2021/01/27 06:06:22;;;;;;;12.15;9.73;;;0.10;99.90;;;;;;4832211;29;20523;-87
2021/01/27 06:08:55;;;;;;;11.87;9.67;;;0.10;99.90;;;;;;4839710;29;20432;-82
2021/01/27 06:11:21;;;;;;;11.40;9.80;;;0.10;99.90;;;;;;4845842;29;20427;-80
2021/01/27 06:13:51;;;;;;;12.10;10.15;;;0.10;99.90;;;;;;4844148;29;20404;-78
2021/01/27 06:16:22;;;;;;;11.48;9.63;;;0.10;99.90;;;;;;4840564;29;20972;-79
2021/01/27 06:18:48;;;;;;;12.52;9.48;;;0.10;99.90;;;;;;4857546;29;20436;-81
2021/01/27 06:21:36;;;;;;;11.05;9.82;;;0.10;99.90;;;;;;4838932;29;20429;-82
2021/01/27 06:24:27;;;;;;;10.85;9.50;;;0.10;99.90;;;;;;4843520;29;20405;-85
2021/01/27 06:27:08;;;;;;;12.40;10.02;;;0.10;99.90;;;;;;4841844;29;20444;-82
2021/01/27 06:30:06;;;;;;;13.30;9.80;;;0.10;99.90;;;;;;4847545;29;20412;-86
2021/01/27 06:33:19;;;;;;;12.50;10.02;;;0.20;99.90;;;;;;4836608;29;20501;-78
2021/01/27 06:36:02;;;;;;;11.45;9.77;;;0.10;99.90;;;;;;4817674;29;20417;-78
2021/01/27 06:38:52;;;;;;;12.20;10.32;;;0.20;99.90;;;;;;4856531;29;20404;-84
2021/01/27 06:41:30;;;;;;;13.93;11.13;;;0.10;99.90;;;;;;4855663;29;20419;-81
2021/01/27 06:44:07;;;;;;;11.82;9.70;;;0.20;99.90;;;;;;4862788;29;20512;-82
2021/01/27 06:46:54;;;;;;;12.93;10.38;;;0.20;99.90;;;;;;4863225;29;20442;-84
2021/01/27 06:49:33;;;;;;;13.93;11.02;;;0.20;99.90;;;;;;4857234;29;20870;-83
2021/01/27 06:52:11;;;;;;;14.73;11.27;;;0.20;99.90;;;;;;4848365;29;20440;-84
2021/01/27 06:54:58;;;;;;;13.63;10.50;;;0.20;99.90;;;;;;4860063;29;21102;-78
2021/01/27 06:57:33;;;;;;;13.77;10.82;;;0.20;99.90;;;;;;4852708;29;20420;-80
2021/01/27 07:00:18;;;;;;;14.20;10.80;;;0.20;99.90;;;;;;4855225;29;20406;-83
2021/01/27 07:03:08;;;;;;;11.77;10.27;;;0.20;99.90;;;;;;4845752;29;20909;-78
2021/01/27 07:06:08;;;;;;;16.42;11.60;;;0.20;99.90;;;;;;4848081;29;20492;-85
2021/01/27 07:08:56;;;;;;;15.13;11.80;;;0.20;99.90;;;;;;4846274;29;20446;-85
2021/01/27 07:11:39;;;;;;;12.98;10.90;;;0.20;99.90;;;;;;4850187;29;20441;-85
2021/01/27 07:14:19;;;;;;;12.77;10.82;;;0.20;99.90;;;;;;4857166;29;20786;-81
2021/01/27 07:17:17;;;;;;;12.82;10.75;;;0.20;99.90;;;;;;4848930;29;20510;-82
2021/01/27 07:20:07;;;;;;;10.95;9.85;;;0.20;99.90;;;;;;4843540;29;20996;-81
2021/01/27 07:22:49;;;;;;;11.32;9.55;;;0.20;99.90;;;;;;4848340;29;20426;-82
2021/01/27 07:25:24;;;;;;;13.35;10.60;;;0.20;99.90;;;;;;4828791;29;20495;-78
2021/01/27 07:27:55;;;;;;;13.43;10.68;;;0.30;99.90;;;;;;4860648;29;20869;-81
2021/01/27 07:30:23;;;;;;;14.10;11.10;;;0.30;99.90;;;;;;4862745;29;20487;-78
2021/01/27 07:32:55;;;;;;;14.18;11.13;;;0.30;99.90;;;;;;4846235;29;20920;-79
2021/01/27 07:35:29;;;;;;;11.77;10.23;;;0.30;99.90;;;;;;4819354;29;20415;-80
2021/01/27 07:38:04;;;;;;;10.60;9.50;;;0.30;99.90;;;;;;4845733;29;20410;-79
2021/01/27 07:40:36;;;;;;;16.58;11.52;;;0.30;99.90;;;;;;4853009;29;20799;-79
2021/01/27 07:43:10;;;;;;;14.27;10.07;;;0.40;99.90;;;;;;4847150;29;20478;-83
2021/01/27 07:45:37;;;;;;;13.47;10.17;;;0.40;99.90;;;;;;4840779;29;20430;-79
2021/01/27 07:48:20;;;;;;;12.38;9.98;;;0.40;99.90;;;;;;4840811;29;20411;-79
2021/01/27 07:50:50;;;;;;;13.18;10.40;;;0.40;99.90;;;;;;4876999;29;20441;-78
2021/01/27 07:53:32;;;;;;;12.18;10.30;;;0.50;99.90;;;;;;4855136;29;23153;-87
2021/01/27 07:56:17;;;;;;;16.00;11.10;;;0.50;99.90;;;;;;4863689;29;20430;-81
2021/01/27 07:58:48;;;;;;;11.10;9.95;;;0.60;99.90;;;;;;4880687;29;20414;-81
2021/01/27 08:01:20;;;;;;;13.23;11.15;;;0.60;99.90;;;;;;4865078;29;20479;-80
2021/01/27 08:04:19;;;;;;;14.88;10.93;;;0.60;99.90;;;;;;4867742;29;20422;-82
2021/01/27 08:06:46;;;;;;;12.33;11.07;;;0.70;99.90;;;;;;4834849;29;20412;-78
2021/01/27 08:09:12;;;;;;;14.88;10.45;;;0.70;99.90;;;;;;4850834;29;20440;-80
2021/01/27 08:11:40;;;;;;;11.77;9.40;;;0.70;99.90;;;;;;4844601;29;20416;-81
2021/01/27 08:14:07;;;;;;;11.73;9.13;;;0.70;99.90;;;;;;4853452;29;20440;-82
2021/01/27 08:16:35;;;;;;;13.60;10.48;;;0.70;99.90;;;;;;4847083;29;20411;-80
2021/01/27 08:19:13;;;;;;;11.25;9.82;;;0.80;99.90;;;;;;4863679;29;20409;-83
2021/01/27 08:21:53;;;;;;;9.73;8.63;;;0.80;99.90;;;;;;4862367;29;20733;-78
2021/01/27 08:24:34;;;;;;;11.65;9.63;;;0.80;99.90;;;;;;4851421;29;20406;-80
2021/01/27 08:27:09;;;;;;;11.63;9.07;;;0.80;99.90;;;;;;4860536;29;20402;-80
2021/01/27 08:29:36;;;;;;;11.15;9.60;;;0.80;99.90;;;;;;4857960;29;20410;-80
2021/01/27 08:32:23;;;;;;;11.98;9.05;;;0.90;99.90;;;;;;4840604;29;20416;-81
2021/01/27 08:34:49;;;;;;;10.07;8.93;;;0.90;99.90;;;;;;4861424;29;20398;-78
2021/01/27 08:37:29;;;;;;;9.80;8.40;;;0.90;99.90;;;;;;4836331;29;20460;-81
2021/01/27 08:40:06;;;;;;;10.93;8.40;;;1.00;99.90;;;;;;4853477;29;20540;-85
2021/01/27 08:42:53;;;;;;;9.48;8.48;;;1.00;99.90;;;;;;4863326;29;20841;-84
2021/01/27 08:45:21;;;;;;;10.87;9.07;;;1.00;99.90;;;;;;4829624;29;20414;-82
2021/01/27 08:47:47;;;;;;;11.80;8.35;;;1.00;99.90;;;;;;4860868;29;20413;-83
2021/01/27 08:50:45;;;;;;;10.95;8.73;;;1.00;99.90;;;;;;4826152;29;20401;-80
2021/01/27 08:53:18;;;;;;;10.60;8.70;;;1.00;99.90;;;;;;4847154;29;20410;-83
2021/01/27 08:55:43;;;;;;;10.93;8.48;;;1.10;99.90;;;;;;4825883;29;20411;-78
2021/01/27 08:58:17;;;;;;;10.00;8.23;;;1.10;99.90;;;;;;4860145;29;20492;-78
2021/01/27 09:00:43;;;;;;;11.60;8.57;;;1.20;99.90;;;;;;4831150;29;21085;-78
2021/01/27 09:03:08;;;;;;;9.60;8.03;;;1.20;99.90;;;;;;4838354;29;20953;-79
2021/01/27 09:05:36;;;;;;;9.37;7.77;;;1.20;99.90;;;;;;4839127;29;20456;-80
2021/01/27 09:08:11;;;;;;;11.40;8.35;;;1.20;99.90;;;;;;4840141;29;20413;-80
2021/01/27 09:10:39;;;;;;;10.15;7.97;;;1.20;99.90;;;;;;4873137;29;20401;-79
2021/01/27 09:13:28;;;;;;;10.85;8.18;;;1.30;99.90;;;;;;4840672;29;20412;-82
2021/01/27 09:16:01;;;;;;;9.55;7.93;;;1.30;99.90;;;;;;4845749;29;20407;-80
2021/01/27 09:18:27;;;;;;;10.95;8.30;;;1.40;99.90;;;;;;4827734;29;20943;-79
2021/01/27 09:20:53;;;;;;;12.15;8.95;;;1.40;99.90;;;;;;4838064;29;20404;-78
2021/01/27 09:23:19;;;;;;;11.07;8.25;;;1.40;99.90;;;;;;4826660;29;20921;-78
2021/01/27 09:25:46;;;;;;;10.75;8.68;;;1.40;99.90;;;;;;4847776;29;21038;-79
2021/01/27 09:28:12;;;;;;;9.65;7.85;;;1.50;99.90;;;;;;4844281;29;20415;-80
2021/01/27 09:30:38;;;;;;;9.90;7.85;;;1.50;99.90;;;;;;4844261;29;20413;-82
2021/01/27 09:33:10;;;;;;;10.02;8.32;;;1.60;99.90;;;;;;4845746;29;20470;-79
2021/01/27 09:35:36;;;;;;;9.48;8.35;;;1.60;99.90;;;;;;4865501;29;20430;-82
2021/01/27 09:38:09;;;;;;;9.93;8.25;;;1.60;99.90;;;;;;4829657;29;20421;-83
2021/01/27 09:40:45;;;;;;;12.90;10.57;;;1.60;99.90;;;;;;4845794;29;20445;-82
2021/01/27 09:43:13;;;;;;;14.90;12.65;;;1.70;99.90;;;;;;4844512;29;20422;-84
2021/01/27 09:45:44;;;;;;;14.13;11.13;;;1.80;99.90;;;;;;4827605;29;20509;-81
2021/01/27 09:48:10;;;;;;;9.68;8.02;;;2.00;99.90;;;;;;4842243;29;20490;-83
2021/01/27 09:50:38;;;;;;;11.07;8.85;;;1.90;99.90;;;;;;4841837;29;20814;-80
2021/01/27 09:53:04;;;;;;;10.45;8.38;;;1.90;99.90;;;;;;4826979;29;20422;-81
2021/01/27 09:55:30;;;;;;;11.00;9.23;;;2.00;99.90;;;;;;4840360;29;20470;-84
2021/01/27 09:57:55;;;;;;;11.93;8.43;;;1.80;99.90;;;;;;4826888;29;20844;-81
2021/01/27 10:00:25;;;;;;;8.60;7.63;;;2.20;99.90;;;;;;4835108;29;20766;-81
2021/01/27 10:02:51;;;;;;;10.75;8.88;;;2.00;99.90;;;;;;4829924;29;20420;-81
2021/01/27 10:05:36;;;;;;;12.35;9.13;;;2.00;99.90;;;;;;4823681;29;20932;-80
2021/01/27 10:08:48;;;;;;;11.85;9.82;;;2.10;99.90;;;;;;4837549;29;20556;-82
2021/01/27 10:11:35;;;;;;;10.50;9.20;;;2.10;99.90;;;;;;4821389;29;20494;-81
2021/01/27 10:14:12;;;;;;;11.43;8.93;;;2.30;99.90;;;;;;4818397;29;20408;-80
2021/01/27 10:16:54;;;;;;;14.07;9.38;;;2.40;99.90;;;;;;4838138;29;20978;-80
2021/01/27 10:19:22;;;;;;;12.40;8.95;;;2.50;99.90;;;;;;4838430;29;20846;-81
2021/01/27 10:21:48;;;;;;;10.80;8.75;;;2.50;99.90;;;;;;4822552;29;20508;-80
2021/01/27 10:24:37;;;;;;;11.47;9.43;;;2.50;99.90;;;;;;4813939;29;20503;-82
2021/01/27 10:27:03;;;;;;;10.85;8.80;;;2.50;99.90;;;;;;4840076;29;20418;-81
2021/01/27 10:29:35;;;;;;;11.43;8.98;;;2.60;99.90;;;;;;4835520;29;20935;-81
2021/01/27 10:32:17;;;;;;;10.93;9.18;;;2.70;99.90;;;;;;4821252;29;20434;-81
2021/01/27 10:34:46;;;;;;;12.18;8.63;;;2.80;99.90;;;;;;4819604;29;20785;-80
2021/01/27 10:37:36;;;;;;;12.03;9.80;;;2.80;99.90;;;;;;4835730;29;20446;-81
2021/01/27 10:40:09;;;;;;;10.90;9.00;;;2.90;99.90;;;;;;4854383;29;20469;-80
2021/01/27 10:42:46;;;;;;;11.70;9.30;;;2.90;99.90;;;;;;4838688;29;20438;-80
2021/01/27 10:45:32;;;;;;;11.15;9.32;;;2.90;99.90;;;;;;4854747;23;20419;-80
2021/01/27 10:48:10;;;;;;;10.43;9.15;;;3.00;99.90;;;;;;4853394;29;20560;-79
2021/01/27 10:50:41;;;;;;;10.53;8.93;;;3.00;99.90;;;;;;4837009;29;20404;-79
2021/01/27 10:53:19;;;;;;;10.82;8.93;;;3.00;99.90;;;;;;4852132;29;20424;-80
2021/01/27 10:55:55;;;;;;;11.32;9.57;;;3.00;99.90;;;;;;4837496;29;20414;-78
2021/01/27 10:58:34;;;;;;;12.20;9.35;;;3.00;99.90;;;;;;4835119;29;20989;-79
2021/01/27 11:01:08;;;;;;;11.40;9.55;;;3.00;99.90;;;;;;4852894;29;20488;-79
2021/01/27 11:03:35;;;;;;;12.48;9.13;;;3.00;99.90;;;;;;4813961;29;20423;-81
2021/01/27 11:06:02;;;;;;;12.88;9.60;;;3.10;99.90;;;;;;4838298;29;20464;-79
2021/01/27 11:08:29;;;;;;;12.80;9.07;;;3.00;99.90;;;;;;4836304;29;20474;-80
2021/01/27 11:10:56;;;;;;;10.98;8.93;;;3.10;99.90;;;;;;4838294;29;20486;-81
2021/01/27 11:13:23;;;;;;;13.68;8.88;;;3.10;99.90;;;;;;4845913;29;20408;-79
2021/01/27 11:15:49;;;;;;;12.10;8.77;;;3.10;99.90;;;;;;4846249;29;20466;-80
2021/01/27 11:18:16;;;;;;;9.77;8.10;;;3.10;99.90;;;;;;4846918;29;20402;-79
2021/01/27 11:20:43;;;;;;;11.15;9.73;;;3.20;99.90;;;;;;4838969;29;20971;-79
2021/01/27 11:23:08;;;;;;;9.90;8.77;;;3.20;99.90;;;;;;4819797;29;20418;-81
2021/01/27 11:25:35;;;;;;;11.53;9.17;;;3.20;99.90;;;;;;4850845;29;20416;-78
2021/01/27 11:28:01;;;;;;;12.43;9.18;;;3.20;99.90;;;;;;4840659;29;20419;-79
2021/01/27 11:30:29;;;;;;;10.93;8.02;;;3.20;99.90;;;;;;4857962;29;20410;-79
2021/01/27 11:32:56;;;;;;;9.07;8.17;;;3.20;99.90;;;;;;4857220;29;20917;-80
2021/01/27 11:35:24;;;;;;;9.13;7.80;;;3.20;99.90;;;;;;4841061;29;20433;-78
2021/01/27 11:37:51;;;;;;;8.05;7.25;;;3.20;99.90;;;;;;4862380;29;20424;-80
2021/01/27 11:40:22;;;;;;;8.13;7.05;;;3.20;99.90;;;;;;4832678;29;20418;-80
2021/01/27 11:42:49;;;;;;;9.45;7.65;;;3.10;99.90;;;;;;4863240;29;20457;-79
2021/01/27 11:45:18;;;;;;;9.80;8.07;;;3.20;99.90;;;;;;4832557;29;20447;-79
2021/01/27 11:48:05;;;;;;;11.33;8.73;;;3.20;99.90;;;;;;4845227;29;20471;-81
2021/01/27 11:51:29;;;;;;;9.93;8.32;;;3.20;99.90;;;;;;4821408;29;20413;-79
2021/01/27 11:54:51;;;;;;;10.50;8.00;;;3.30;99.90;;;;;;4860565;29;20510;-80
2021/01/27 11:57:53;;;;;;;10.82;7.88;;;3.30;99.90;;;;;;4873255;29;20440;-80
2021/01/27 12:00:57;;;;;;;9.55;8.32;;;3.50;99.90;;;;;;4843148;29;20465;-79
2021/01/27 12:09:02;;;;;;;10.38;8.10;;;3.70;99.90;;;;;;4857195;29;20418;-82
2021/01/27 12:12:23;;;;;;;9.00;7.10;;;3.70;99.90;;;;;;4869159;29;20418;-80
2021/01/27 12:20:13;;;;;;;8.60;6.45;;;4.20;99.90;;;;;;4809495;29;20505;-79
2021/01/27 12:24:39;;;;;;;8.80;6.90;;;4.00;99.90;;;;;;4881312;29;20526;-80
2021/01/27 12:28:40;;;;;;;8.82;7.30;;;4.10;99.90;;;;;;4870191;29;20427;-80
2021/01/27 12:31:59;;;;;;;10.15;7.95;;;4.20;99.90;;;;;;4834059;29;20515;-80
2021/01/27 12:34:50;;;;;;;8.88;7.28;;;4.30;99.90;;;;;;4862177;29;20490;-80
2021/01/27 12:38:35;;;;;;;7.83;6.90;;;4.30;99.90;;;;;;4874791;29;20441;-80
2021/01/27 12:41:55;;;;;;;7.50;5.97;;;4.20;99.90;;;;;;4831674;29;20438;-81
2021/01/27 12:45:41;;;;;;;7.05;6.35;;;4.40;99.90;;;;;;4843708;29;20422;-82
2021/01/27 12:49:25;;;;;;;7.32;6.45;;;4.40;99.90;;;;;;4829476;29;20410;-79
2021/01/27 12:52:33;;;;;;;7.80;6.13;;;4.40;99.90;;;;;;4839172;29;20402;-78
2021/01/27 13:03:59;;;;;;;6.93;6.07;;;4.80;99.90;;;;;;4792926;29;20522;-80
2021/01/27 13:07:42;;;;;;;8.10;5.93;;;4.70;99.90;;;;;;4813903;29;20402;-80
2021/01/27 13:22:42;;;;;;;5.17;4.67;;;4.50;99.90;;;;;;4892537;29;20423;-79
2021/01/27 13:26:19;;;;;;;5.67;4.73;;;4.30;99.90;;;;;;4857598;29;20488;-81
2021/01/27 13:30:04;;;;;;;6.75;5.18;;;4.30;99.90;;;;;;4880180;29;20407;-80
2021/01/27 13:33:45;;;;;;;5.20;4.65;;;4.40;99.90;;;;;;4832024;29;20448;-79
2021/01/27 13:49:44;;;;;;;5.20;4.70;;;5.60;99.90;;;;;;4816374;29;20413;-80
2021/01/27 13:54:07;;;;;;;6.00;4.20;;;5.40;99.90;;;;;;4798791;30;20419;-79
2021/01/27 14:01:04;;;;;;;4.60;3.78;;;5.40;99.90;;;;;;4865802;23;20823;-79
2021/01/27 14:03:31;;;;;;;5.33;4.83;;;5.50;99.90;;;;;;4812538;29;20467;-79
2021/01/27 14:06:04;;;;;;;6.90;4.28;;;5.60;99.90;;;;;;4829005;29;20420;-79
2021/01/27 14:08:33;;;;;;;4.43;4.03;;;5.70;99.90;;;;;;4830948;29;20894;-79
2021/01/27 14:10:59;;;;;;;3.90;3.50;;;5.50;99.90;;;;;;4835522;29;20412;-79
2021/01/27 14:13:25;;;;;;;4.72;4.22;;;5.50;99.90;;;;;;4831886;29;20485;-79
2021/01/27 14:15:51;;;;;;;3.92;3.60;;;5.60;99.90;;;;;;4814539;29;20452;-80
2021/01/27 14:18:17;;;;;;;4.53;4.10;;;5.40;99.90;;;;;;4838387;29;20419;-79
2021/01/27 14:20:43;;;;;;;4.70;3.88;;;5.30;99.90;;;;;;4854478;29;20428;-79
2021/01/27 14:23:10;;;;;;;5.10;4.43;;;5.30;99.90;;;;;;4870745;29;20421;-79
2021/01/27 14:25:36;;;;;;;4.50;4.10;;;5.20;99.90;;;;;;4823049;29;20437;-81
2021/01/27 14:28:02;;;;;;;4.82;4.22;;;5.00;99.90;;;;;;4834816;29;20418;-79
2021/01/27 14:30:30;;;;;;;3.83;3.47;;;5.20;99.90;;;;;;4836531;29;20412;-79
2021/01/27 14:32:57;;;;;;;4.13;3.67;;;5.30;99.90;;;;;;4833464;29;20438;-79